Mae Sariang, Thailand
Current Conditions -  °F | °C
As of 1:00 PM on Thursday 23 Oct 2014 (Local Time) from VTCC Reporting Station
Broken Clouds Broken Clouds  
Wind Chill: 84°   Ceiling: 3500
Heat Index: 86°   Visibility: 6mi
Dew Point: 64°   Wind: 3mph
Humidity: 51%   Direction: 150°SSE
Pressure: 29.97"   Gusts: NA
Location:  18.15°N, 97.93°E
Report Text: VTCC 230600Z 15003KT 9999 BKN035 29/18 Q1015 A2998 NOSIG
Loading
Personal Weather Stations






























Interactive Weather Map
Tropical Storm Tracking
New forecast layout! Learn more

10-Day Weather Forecast

Advertisements
Track Severe Weather on mobile